Hartstown, Pennsylvania
Current Conditions -  °F | °C
As of 3:20 AM on Thursday 18 Dec 2014 (Local Time) from KGKJ Reporting Station
Light Snow Light Snow  
Wind Chill: 16°   Ceiling: 1200
Heat Index: 26°   Visibility: 3mi
Dew Point: 22°   Wind: 10mph
Humidity: 84%   Direction: 260°W
Pressure: 30.11"   Gusts: NA
Location:  41.55°N, 80.38°W
Report Text: KGKJ 180820Z AUTO 26009KT 3SM -SN BR BKN012 OVC017 M03/M06 A3011 RMK AO2 P0000 T10331056 TSNO
Loading
Personal Weather Stations






























Interactive Weather Map New forecast layout! Learn more

10-Day Weather Forecast

Advertisements
Track Severe Weather on mobile